• Join FlightAware (Why Join?)
  • Login
  • US Flag GB Flag 
06:56 EDT


 

Airport Tracker/Info


-or-


 

Live Flight TrackerFlight Track Log ✈ AAY891 ✈ 17-Jan-2014 ✈ KFWA - KPIE

Flight Track Log - Related Links

Times and Time Zones

All times are in EST time to prevent confusion due to time zone crossing. See the AAY891 flight status page for this flight to view local times or setup timezone preferences in your user account.

Time Position Orientation Groundspeed Altitude Reporting Facility
EST Latitude Longitude Course Direction KTS MPH feet Rate Location/Type
16:08 40.9086 -85.2072 146° Southeast 250 288 3,800  Level Chicago Center
16:09 40.8364 -85.1428 146° Southeast 259 298 8,400 3,300 Climbing Chicago Center
16:10 40.7694 -85.1233 168° South 258 297 10,700 1,800 Climbing Chicago Center
16:11 40.6850 -85.0994 168° South 296 341 12,200 1,560 Climbing Chicago Center
16:12 40.6225 -85.0806 167° South 329 379 13,400 2,340 Climbing Indianapolis Center
16:13 40.2587 -85.0335 146° Southeast  Level Estimated
16:13 40.5164 -85.0486 167° South 380 437 16,200  Level Indianapolis Center
16:14 40.4031 -85.0200 169° South 403 464 18,400 2,100 Climbing Indianapolis Center
16:15 40.2867 -84.9889 168° South 422 486 20,600 2,160 Climbing Indianapolis Center
16:16 40.1406 -84.9533 169° South 441 507 22,900 1,920 Climbing Indianapolis Center
16:17 40.0175 -84.9069 164° South 454 522 24,600 1,740 Climbing Indianapolis Center
16:18 39.8967 -84.8456 159° South 464 534 26,600 1,140 Climbing Indianapolis Center
16:19 39.7792 -84.7839 158° South 461 531 27,000 840 Climbing Indianapolis Center
16:20 39.6644 -84.7200 157° South 456 525 28,400 1,620 Climbing Indianapolis Center
16:21 39.5278 -84.6400 156° South 453 521 30,400 1,200 Climbing Indianapolis Center
16:22 39.4197 -84.5717 154° Southeast 442 509 31,000 600 Climbing Indianapolis Center
16:23 39.3072 -84.4994 154° Southeast 447 514 31,700 960 Climbing Indianapolis Center
16:24 39.1903 -84.4500 162° South 445 512 33,000 600 Climbing Indianapolis Center
16:25 39.0722 -84.4278 172° South 432 497 33,000  Level Indianapolis Center
16:26 38.9497 -84.4136 175° South 442 509 33,000  Level Indianapolis Center
16:27 38.8022 -84.3897 173° South 446 513 33,000  Level Indianapolis Center
16:28 38.6817 -84.3639 171° South 441 507 33,000  Level Indianapolis Center
16:29 38.5472 -84.3358 171° South 439 505 33,000  Level Indianapolis Center
16:30 38.4283 -84.3169 173° South 431 496 33,000  Level Indianapolis Center
16:31 38.3103 -84.2983 173° South 427 491 33,000  Level Indianapolis Center
16:32 38.1919 -84.2789 173° South 427 491 33,000  Level Indianapolis Center
16:33 38.0750 -84.2572 172° South 424 488 33,000  Level Indianapolis Center
16:34 37.9594 -84.2358 172° South 420 483 33,000  Level Indianapolis Center
16:35 37.8233 -84.2139 173° South 421 484 33,000  Level Indianapolis Center
16:36 37.7072 -84.1953 173° South 420 483 33,000  Level Indianapolis Center
16:37 37.5925 -84.1753 172° South 417 480 33,000  Level Indianapolis Center
16:38 37.4769 -84.1536 172° South 418 481 33,000  Level Indianapolis Center
16:39 37.3625 -84.1336 172° South 417 480 33,000  Level Indianapolis Center
16:40 37.2267 -84.1150 174° South 419 482 33,000  Level Indianapolis Center
16:42 37.1094 -84.0956 172° South 422 486 33,000  Level Indianapolis Center
16:43 36.9942 -84.0758 172° South 419 482 33,000  Level Indianapolis Center
16:44 36.8819 -84.0539 171° South 411 473 33,000  Level Indianapolis Center
16:45 36.7692 -84.0339 172° South 410 472 33,000  Level Indianapolis Center
16:46 36.6372 -84.0156 174° South 410 472 33,000  Level Indianapolis Center
16:47 36.5253 -83.9978 173° South 406 467 33,000  Level Indianapolis Center
16:48 36.4064 -83.9825 174° South 406 467 33,000  Level Indianapolis Center
16:49 36.2992 -83.9992 187° South 390 449 33,000  Level Indianapolis Center
16:50 36.1906 -84.0206 189° South 391 450 33,000  Level Indianapolis Center
16:51 36.0800 -84.0392 188° South 397 457 33,000  Level Indianapolis Center
16:52 35.9664 -84.0592 188° South 401 461 33,000  Level Atlanta Center
16:53 35.8581 -84.0747 187° South 401 461 33,000  Level Atlanta Center
16:54 35.7494 -84.0925 188° South 396 456 33,000  Level Atlanta Center
16:55 35.6411 -84.1103 188° South 396 456 33,000  Level Atlanta Center
16:56 35.5347 -84.1306 189° South 391 450 33,000  Level Atlanta Center
16:57 35.4219 -84.1458 186° South 396 456 33,000  Level Atlanta Center
16:58 35.3133 -84.1661 189° South 401 461 33,000  Level Atlanta Center
16:59 35.2069 -84.1836 188° South 401 461 33,000  Level Atlanta Center
17:00 35.0964 -84.2039 189° South 401 461 33,000  Level Atlanta Center
17:01 34.9878 -84.2214 188° South 401 461 33,000  Level Atlanta Center
17:02 34.8919 -84.2311 185° South 391 450 33,000  Level Atlanta Center
17:03 34.7856 -84.2486 188° South 391 450 33,000  Level Atlanta Center
17:04 34.6811 -84.2661 188° South 391 450 33,000  Level Atlanta Center
17:05 34.5725 -84.2836 188° South 386 444 33,000  Level Atlanta Center
17:06 34.4639 -84.3008 187° South 391 450 33,000  Level Atlanta Center
17:07 34.3428 -84.3206 188° South 391 450 33,000  Level Atlanta Center
17:08 34.2383 -84.3403 189° South 386 444 33,000  Level Atlanta Center
17:09 34.1342 -84.3575 188° South 386 444 33,000  Level Atlanta Center
17:10 34.0381 -84.3722 187° South 399 459 33,000  Level Atlanta Center
17:11 33.9272 -84.3867 186° South 393 452 33,000  Level Atlanta Center
17:12 33.8231 -84.4064 189° South 387 445 33,000  Level Atlanta Center
17:13 33.7061 -84.4233 187° South 387 445 33,000  Level Atlanta Center
17:14 33.6017 -84.4353 185° South 387 445 33,000  Level Atlanta Center
17:15 33.5036 -84.4375 181° South 387 445 33,000  Level Atlanta Center
17:16 33.3867 -84.4319 178° South 387 445 33,000  Level Atlanta Center
17:17 33.2803 -84.4289 179° South 382 440 33,000  Level Atlanta Center
17:18 33.1717 -84.4283 180° South 382 440 33,000  Level Atlanta Center
17:19 33.0672 -84.4306 181° South 382 440 33,000  Level Atlanta Center
17:20 32.9608 -84.4250 177° South 382 440 33,000  Level Atlanta Center
17:21 32.8522 -84.4222 179° South 382 440 33,000  Level Atlanta Center
17:22 32.7564 -84.4217 180° South 382 440 33,000  Level Atlanta Center
17:23 32.6478 -84.4186 179° South 387 445 33,000  Level Atlanta Center
17:24 32.5414 -84.4158 179° South 387 445 33,000  Level Atlanta Center
17:25 32.4369 -84.4106 178° South 381 438 33,000  Level Atlanta Center
17:26 32.3347 -84.4100 180° South 376 433 33,000  Level Atlanta Center
17:27 32.2325 -84.4072 179° South 376 433 33,000  Level Atlanta Center
17:28 32.1300 -84.4067 180° South 370 426 33,000  Level Atlanta Center
17:28 32.0447 -84.4025 178° South 369 425 33,000  Level Jacksonville Center
17:29 31.9406 -84.4006 179° South 369 425 33,000  Level Jacksonville Center
17:30 31.8381 -84.3989 179° South 374 430 33,000  Level Jacksonville Center
17:31 31.7339 -84.3972 179° South 374 430 33,000  Level Jacksonville Center
17:32 31.6272 -84.3956 179° South 374 430 33,000  Level Jacksonville Center
17:33 31.5208 -84.3939 179° South 384 442 33,000  Level Jacksonville Center
17:34 31.4306 -84.4289 198° South 363 418 33,000  Level Jacksonville Center
17:35 31.3547 -84.4908 215° Southwest 339 390 33,000  Level Jacksonville Center
17:36 31.2808 -84.5553 217° Southwest 339 390 33,000  Level Jacksonville Center
17:37 31.2111 -84.6219 219° Southwest 339 390 33,000  Level Jacksonville Center
17:38 31.1372 -84.6839 216° Southwest 334 384 33,000  Level Jacksonville Center
17:39 31.0653 -84.7481 217° Southwest 334 384 33,000  Level Jacksonville Center
17:40 30.9667 -84.7703 191° South 334 384 33,000  Level Jacksonville Center
17:41 30.8631 -84.7150 155° Southeast 352 405 33,000 -60 Level Jacksonville Center
17:42 30.7683 -84.6333 143° Southeast 379 436 32,900  Descending Jacksonville Center
17:43 30.6711 -84.5494 143° Southeast 398 458 33,000  Climbing Jacksonville Center
17:44 30.5700 -84.4706 146° Southeast 423 487 33,000  Level Jacksonville Center
17:45 30.4706 -84.3964 147° Southeast 430 495 33,000 -60 Level Jacksonville Center
17:46 30.3672 -84.3178 147° Southeast 436 502 32,900 -60 Descending Jacksonville Center
17:47 30.2678 -84.2369 145° Southeast 441 507 32,900  Level Jacksonville Center
17:48 30.1683 -84.1611 147° Southeast 435 501 32,900  Level Jacksonville Center
17:49 30.0647 -84.0806 146° Southeast 435 501 32,900  Level Jacksonville Center
17:50 29.9631 -84.0050 147° Southeast 435 501 33,000  Climbing Jacksonville Center
17:51 29.8614 -83.9272 146° Southeast 435 501 32,900 -60 Descending Jacksonville Center
17:52 29.7578 -83.8544 149° Southeast 435 501 32,900  Level Jacksonville Center
17:53 29.6517 -83.7889 152° Southeast 430 495 33,000 -60 Climbing Jacksonville Center
17:54 29.5478 -83.7233 151° Southeast 430 495 32,800 -960 Descending Jacksonville Center
17:55 29.4439 -83.6533 150° Southeast 430 495 31,100 -2,400 Descending Jacksonville Center
17:56 29.3397 -83.5858 151° Southeast 430 495 28,000 -2,100 Descending Jacksonville Center
17:57 29.2317 -83.5231 153° Southeast 430 495 26,900 -1,320 Descending Jacksonville Center
17:58 29.1297 -83.4536 149° Southeast 430 495 25,400 -1,440 Descending Jacksonville Center
17:59 29.0275 -83.3864 150° Southeast 425 489 24,100 -1,740 Descending Jacksonville Center
18:00 28.9275 -83.3244 152° Southeast 419 482 22,000 -2,340 Descending Jacksonville Center
18:01 28.8275 -83.2622 151° Southeast 409 471 19,500 -2,220 Descending Jacksonville Center
18:04 28.6000 -83.1167 151° Southeast 378 435 14,600 -1,800 Descending Tampa TRACON
18:05 28.5167 -83.0667 152° Southeast 338 389 13,500 -1,260 Descending Tampa TRACON
18:06 28.4333 -83.0167 152° Southeast 298 343 12,000 -1,500 Descending Tampa TRACON
18:07 28.3500 -82.9833 161° South 289 333 10,400 -1,620 Descending Tampa TRACON
18:08 28.2833 -82.9667 168° South 280 322 8,800 -1,440 Descending Tampa TRACON
18:09 28.2000 -82.9500 170° South 272 313 7,500 -1,260 Descending Tampa TRACON
18:10 28.1333 -82.9333 168° South 236 272 6,300 -1,320 Descending Tampa TRACON
18:11 28.1000 -82.8667 120° Southeast 250 288 4,900 -1,320 Descending Tampa TRACON
18:12 28.0667 -82.8000 120° Southeast 233 268 3,700 -1,320 Descending Tampa TRACON
18:13 28.0500 -82.7333 106° East 226 260 2,300 -1,080 Descending Tampa TRACON
18:14 28.0167 -82.7000 139° Southeast 183 211 1,600 -720 Descending Tampa TRACON
18:15 27.9667 -82.7000 180° South 154 177 900 -720 Descending Tampa TRACON
18:16 27.9333 -82.7000 180° South 126 145 200 -720 Descending Tampa TRACON